createdAt,value
2022-12-09T00:45:56.562Z,52.90
2022-12-09T00:48:24.173Z,53.14
2022-12-09T00:50:51.953Z,53.12
2022-12-09T00:53:19.593Z,53.15
2022-12-09T00:55:47.353Z,53.33
2022-12-09T00:58:15.060Z,53.43
2022-12-09T01:47:32.362Z,54.17
2022-12-09T01:50:00.358Z,54.23
2022-12-09T01:52:27.973Z,54.31
2022-12-09T01:54:57.234Z,54.23
2022-12-09T01:57:25.125Z,54.30
2022-12-09T01:59:53.278Z,54.42
2022-12-09T02:49:13.575Z,55.53
2022-12-09T02:51:43.211Z,55.23
2022-12-09T02:54:14.678Z,55.40
2022-12-09T02:56:46.746Z,55.60
2022-12-09T02:59:14.304Z,55.46
2022-12-09T03:45:43.333Z,56.02
2022-12-09T03:48:11.558Z,55.96
2022-12-09T03:50:41.306Z,56.06
2022-12-09T03:53:10.435Z,56.19
2022-12-09T03:55:41.925Z,56.20
2022-12-09T03:58:09.885Z,56.29
2022-12-09T04:47:33.423Z,56.77
2022-12-09T04:50:01.409Z,56.84
2022-12-09T04:52:30.201Z,56.75
2022-12-09T04:54:57.859Z,56.90
2022-12-09T04:57:25.610Z,56.92
2022-12-09T04:59:53.177Z,56.89
2022-12-09T05:31:41.286Z,57.10
2022-12-09T05:34:09.490Z,57.01
2022-12-09T05:36:38.259Z,57.19
2022-12-09T05:39:06.089Z,57.06
2022-12-09T05:41:33.921Z,57.19
2022-12-09T05:44:01.699Z,57.05
2022-12-09T05:46:29.870Z,57.28
2022-12-09T05:48:59.486Z,57.15
2022-12-09T05:51:27.856Z,57.21
2022-12-09T05:53:55.766Z,57.32
2022-12-09T05:56:24.346Z,57.21
2022-12-09T05:58:52.166Z,57.14
2022-12-09T06:01:20.064Z,57.35
2022-12-09T06:03:48.334Z,57.27
2022-12-09T06:06:18.676Z,57.47
2022-12-09T06:08:46.796Z,57.31
2022-12-09T06:11:15.529Z,57.21
2022-12-09T06:13:44.090Z,57.19
2022-12-09T06:16:12.193Z,57.25
2022-12-09T06:18:40.212Z,57.20
2022-12-09T06:21:08.248Z,57.24
2022-12-09T06:23:37.425Z,57.22
2022-12-09T06:26:05.586Z,57.30
2022-12-09T06:28:33.392Z,57.18
2022-12-09T06:31:01.214Z,57.40
2022-12-09T06:33:53.478Z,57.36
2022-12-09T06:36:17.429Z,57.20
2022-12-09T06:38:46.708Z,57.22
2022-12-09T06:41:15.587Z,57.25
2022-12-09T06:43:43.469Z,57.31
2022-12-09T06:46:14.510Z,57.38
2022-12-09T06:48:42.704Z,57.07
2022-12-09T06:51:10.629Z,57.25
2022-12-09T06:53:38.588Z,57.20
2022-12-09T06:56:12.328Z,57.22
2022-12-09T06:58:41.200Z,57.02
2022-12-09T07:01:11.428Z,56.92
2022-12-09T07:03:39.301Z,56.80
2022-12-09T07:06:07.827Z,56.72
2022-12-09T07:08:35.663Z,56.81
2022-12-09T07:11:03.699Z,56.86
2022-12-09T07:13:33.220Z,56.80
2022-12-09T07:16:01.403Z,56.85
2022-12-09T07:18:29.439Z,56.75
2022-12-09T07:20:57.490Z,56.67
2022-12-09T07:23:25.426Z,56.74
2022-12-09T07:25:56.423Z,56.96
2022-12-09T07:28:24.422Z,56.92
2022-12-09T07:30:53.838Z,56.90
2022-12-09T07:33:21.912Z,56.98
2022-12-09T07:35:50.176Z,57.07
2022-12-09T07:38:18.249Z,57.07
2022-12-09T07:40:46.165Z,56.89
2022-12-09T07:43:13.894Z,56.82
2022-12-09T07:45:41.999Z,56.74
2022-12-09T07:48:11.860Z,56.76
2022-12-09T07:50:40.128Z,56.62
2022-12-09T07:53:08.085Z,56.56
2022-12-09T07:55:36.129Z,43.17
2022-12-09T07:58:04.386Z,46.17
2022-12-09T08:00:32.233Z,46.54
2022-12-09T08:03:00.120Z,47.47
2022-12-09T08:05:29.695Z,49.03
2022-12-09T08:07:58.036Z,50.45
2022-12-09T08:10:26.325Z,50.38
2022-12-09T08:12:54.179Z,50.61
2022-12-09T08:15:22.112Z,52.03
2022-12-09T08:17:50.245Z,51.51
2022-12-09T08:20:20.410Z,50.70
2022-12-09T08:22:51.800Z,50.59
2022-12-09T08:25:19.931Z,51.27
2022-12-09T08:27:47.716Z,51.33
2022-12-09T08:30:16.236Z,51.46
2022-12-09T08:32:45.028Z,51.81
2022-12-09T08:35:15.207Z,51.79
2022-12-09T08:37:43.220Z,51.74
2022-12-09T08:40:13.803Z,51.44
2022-12-09T08:42:41.873Z,51.25
2022-12-09T08:45:10.012Z,51.46
2022-12-09T08:47:37.954Z,51.63
2022-12-09T08:50:06.809Z,51.54
2022-12-09T08:52:40.361Z,51.53
2022-12-09T08:55:08.774Z,51.68
2022-12-09T08:57:37.852Z,51.70
2022-12-09T09:00:06.376Z,51.37
2022-12-09T09:02:34.715Z,51.59
2022-12-09T09:05:03.177Z,51.57
2022-12-09T09:07:32.091Z,51.80
2022-12-09T09:10:01.416Z,51.70
2022-12-09T09:12:29.880Z,51.76
2022-12-09T09:14:59.858Z,51.80
2022-12-09T09:17:27.641Z,51.89
2022-12-09T09:19:55.972Z,51.89
2022-12-09T09:22:24.205Z,51.91
2022-12-09T09:24:54.247Z,52.02
2022-12-09T09:27:22.411Z,51.87
2022-12-09T09:29:50.250Z,51.93
2022-12-09T09:32:19.687Z,52.22
2022-12-09T09:34:50.649Z,52.15
2022-12-09T09:37:18.957Z,52.14
2022-12-09T09:39:47.249Z,52.05
2022-12-09T09:42:16.022Z,52.15
2022-12-09T09:44:44.900Z,52.35
2022-12-09T09:47:14.794Z,52.29
2022-12-09T09:49:44.900Z,52.65
2022-12-09T09:52:14.549Z,52.27
2022-12-09T09:54:42.467Z,52.68
2022-12-09T09:57:12.173Z,52.10
2022-12-09T09:59:43.533Z,51.97
2022-12-09T10:02:18.334Z,51.91
2022-12-09T10:04:55.600Z,51.64
2022-12-09T10:07:25.031Z,51.65
2022-12-09T10:09:55.164Z,51.69
2022-12-09T10:12:25.965Z,51.63
2022-12-09T10:14:55.061Z,51.99
2022-12-09T10:17:25.245Z,52.19
2022-12-09T10:19:55.329Z,52.03
2022-12-09T10:22:24.297Z,52.07
2022-12-09T10:24:53.523Z,52.06
2022-12-09T10:27:26.522Z,52.22
2022-12-09T10:29:55.894Z,52.04
2022-12-09T10:32:25.723Z,52.12
2022-12-09T10:34:55.169Z,52.25
2022-12-09T10:37:26.964Z,52.34
2022-12-09T10:39:56.857Z,52.43
2022-12-09T10:42:42.379Z,52.40
2022-12-09T10:45:10.878Z,52.40
2022-12-09T10:47:38.862Z,52.35
2022-12-09T10:50:09.747Z,52.47
2022-12-09T10:52:41.128Z,52.39
2022-12-09T10:55:13.962Z,52.43
2022-12-09T10:57:41.965Z,52.47
2022-12-09T11:00:22.165Z,52.45
2022-12-09T11:02:51.467Z,52.50
2022-12-09T11:05:24.659Z,52.61
2022-12-09T11:07:53.348Z,52.54
2022-12-09T11:10:22.719Z,52.77
2022-12-09T11:12:52.673Z,52.63
2022-12-09T11:15:25.905Z,52.87
2022-12-09T11:17:58.016Z,52.87
2022-12-09T11:20:28.428Z,52.76
2022-12-09T11:22:59.972Z,52.99
2022-12-09T11:25:28.200Z,52.97
2022-12-09T11:27:56.450Z,53.07
2022-12-09T11:30:25.600Z,52.83
2022-12-09T11:32:58.613Z,53.03
2022-12-09T11:35:30.219Z,52.99
2022-12-09T11:37:58.025Z,53.12
2022-12-09T11:40:25.758Z,53.05
2022-12-09T11:42:53.774Z,53.20
2022-12-09T11:45:23.807Z,53.02
2022-12-09T11:48:25.749Z,53.20
2022-12-09T11:50:42.632Z,53.41
2022-12-09T11:53:18.567Z,53.33
2022-12-09T11:55:46.612Z,53.35
2022-12-09T11:58:15.006Z,53.28
2022-12-09T12:00:43.124Z,53.25
2022-12-09T12:03:13.174Z,53.17
2022-12-09T12:05:43.094Z,53.13
2022-12-09T12:08:14.749Z,53.05
2022-12-09T12:10:43.338Z,52.90
2022-12-09T12:13:11.711Z,53.20
2022-12-09T12:15:40.863Z,53.32
2022-12-09T12:18:10.506Z,53.19
2022-12-09T12:20:41.674Z,53.05
2022-12-09T12:23:18.721Z,53.24
2022-12-09T12:25:48.740Z,53.08
2022-12-09T12:28:19.265Z,53.16
2022-12-09T12:30:49.456Z,52.93
2022-12-09T12:36:13.473Z,53.15
2022-12-09T12:38:54.830Z,53.17
2022-12-09T12:41:23.380Z,52.88
2022-12-09T12:44:13.718Z,52.95
2022-12-09T12:46:45.141Z,52.81
2022-12-09T12:49:16.744Z,53.13
2022-12-09T12:51:51.144Z,53.07
2022-12-09T12:54:24.661Z,53.04
2022-12-09T12:56:52.926Z,53.23
2022-12-09T12:59:23.004Z,53.29
2022-12-09T13:01:53.378Z,53.27
2022-12-09T13:04:22.898Z,53.41
2022-12-09T13:06:51.807Z,53.49
2022-12-09T13:09:20.884Z,53.48
2022-12-09T13:11:54.172Z,53.59
2022-12-09T13:14:22.637Z,53.69
2022-12-09T13:16:50.316Z,53.64
2022-12-09T13:19:18.541Z,53.50
2022-12-09T13:21:46.352Z,53.60
2022-12-09T13:24:18.165Z,53.56
2022-12-09T13:26:48.713Z,53.40
2022-12-09T13:29:25.841Z,53.67
2022-12-09T13:31:55.598Z,53.71
2022-12-09T13:34:26.072Z,53.78
2022-12-09T13:36:53.730Z,53.88
2022-12-09T13:39:40.149Z,53.89
2022-12-09T13:42:29.607Z,53.90
2022-12-09T13:44:58.840Z,54.03
2022-12-09T13:47:27.406Z,53.92
2022-12-09T13:49:56.702Z,54.01
2022-12-09T13:52:39.139Z,54.00
2022-12-09T13:55:17.816Z,54.06
2022-12-09T13:57:46.266Z,53.97
2022-12-09T14:00:15.756Z,54.20
2022-12-09T14:02:43.969Z,54.23
2022-12-09T14:05:11.906Z,54.12
2022-12-09T14:07:41.785Z,54.24
2022-12-09T14:10:15.343Z,54.34
2022-12-09T14:13:01.670Z,54.30
2022-12-09T14:15:40.574Z,54.28
2022-12-09T14:18:27.184Z,54.45
2022-12-09T14:21:15.526Z,54.52
2022-12-09T14:23:46.658Z,54.57
2022-12-09T14:26:14.275Z,54.52
2022-12-09T14:28:59.558Z,54.60
2022-12-09T14:31:46.108Z,54.59
2022-12-09T14:34:34.703Z,54.64
2022-12-09T14:37:09.816Z,54.64
2022-12-09T14:39:38.947Z,54.66
2022-12-09T14:42:06.953Z,54.63
2022-12-09T14:44:35.988Z,54.60
2022-12-09T14:47:13.797Z,54.62
2022-12-09T14:49:48.525Z,54.89
2022-12-09T14:52:19.335Z,54.75
2022-12-09T14:54:47.225Z,54.76
2022-12-09T14:57:17.690Z,54.97
2022-12-09T14:59:49.235Z,54.96
2022-12-09T15:02:21.289Z,54.83
2022-12-09T15:04:49.582Z,54.97
2022-12-09T15:07:20.274Z,54.85
2022-12-09T15:09:48.607Z,55.01
2022-12-09T15:12:16.328Z,55.05
2022-12-09T15:14:44.798Z,55.03
2022-12-09T15:17:14.982Z,55.13
2022-12-09T15:22:31.914Z,55.23
2022-12-09T15:24:59.647Z,54.98
2022-12-09T15:27:27.289Z,55.03
2022-12-09T15:29:54.931Z,55.00
2022-12-09T15:32:24.270Z,55.19
2022-12-09T15:34:52.134Z,55.20
2022-12-09T15:37:19.922Z,55.09
2022-12-09T15:39:50.146Z,55.15
2022-12-09T15:42:18.758Z,55.15
2022-12-09T15:44:47.251Z,54.84
2022-12-09T15:47:16.162Z,54.89
2022-12-09T15:49:45.506Z,54.82
2022-12-09T15:52:13.117Z,54.64
2022-12-09T15:54:41.437Z,54.27
2022-12-09T15:57:10.399Z,54.19
2022-12-09T15:59:39.808Z,54.16
2022-12-09T16:02:07.661Z,53.94
2022-12-09T16:04:36.232Z,54.14
2022-12-09T16:07:06.874Z,53.79
2022-12-09T16:09:34.525Z,54.04
2022-12-09T16:12:02.158Z,53.59
2022-12-09T16:14:41.241Z,53.52
2022-12-09T16:17:16.484Z,53.75
2022-12-09T16:19:44.382Z,53.51
2022-12-09T16:22:16.682Z,53.48
2022-12-09T16:25:13.219Z,53.41
2022-12-09T16:27:33.555Z,53.63
2022-12-09T16:30:05.349Z,53.51
2022-12-09T16:32:34.426Z,53.76
2022-12-09T16:35:13.616Z,53.80
2022-12-09T16:37:41.652Z,53.86
2022-12-09T16:40:36.147Z,53.77
2022-12-09T16:43:18.953Z,53.80
2022-12-09T16:45:48.571Z,53.97
2022-12-09T16:48:17.119Z,54.17
2022-12-09T16:50:48.106Z,54.28
2022-12-09T16:53:16.141Z,54.38
2022-12-09T16:55:49.634Z,54.53
2022-12-09T16:58:17.204Z,54.47
2022-12-09T17:00:44.894Z,54.49
2022-12-09T17:03:15.680Z,54.53
2022-12-09T17:05:47.623Z,54.64
2022-12-09T17:08:15.667Z,54.58
2022-12-09T17:10:43.386Z,54.55
2022-12-09T17:13:12.060Z,54.72
2022-12-09T17:15:40.876Z,54.46
2022-12-09T17:18:08.723Z,54.76
2022-12-09T17:20:37.839Z,54.50
2022-12-09T17:23:06.026Z,54.65
2022-12-09T17:25:34.006Z,54.95
2022-12-09T17:28:02.201Z,54.96
2022-12-09T17:30:30.359Z,55.14
2022-12-09T17:32:59.230Z,55.23
2022-12-09T17:35:27.178Z,55.44
2022-12-09T17:37:56.169Z,55.32
2022-12-09T17:40:23.755Z,55.23
2022-12-09T17:42:51.399Z,55.21
2022-12-09T17:45:19.100Z,55.21
2022-12-09T17:47:46.692Z,55.17
2022-12-09T17:50:14.235Z,55.02
2022-12-09T17:52:42.222Z,55.15
2022-12-09T17:55:11.618Z,54.90
2022-12-09T17:57:39.228Z,55.08
2022-12-09T18:00:08.096Z,54.92
2022-12-09T18:02:39.757Z,54.92
2022-12-09T18:05:07.740Z,55.00
2022-12-09T18:07:35.403Z,55.01
2022-12-09T18:10:03.130Z,54.99
2022-12-09T18:12:32.172Z,54.95
2022-12-09T18:14:59.885Z,54.98
2022-12-09T18:17:27.502Z,54.97
2022-12-09T18:19:55.591Z,54.89
2022-12-09T18:22:24.001Z,54.91
2022-12-09T18:24:51.754Z,54.91
2022-12-09T18:27:21.684Z,54.76
2022-12-09T18:29:50.745Z,54.88
2022-12-09T18:32:18.468Z,54.82
2022-12-09T18:34:47.143Z,54.77
2022-12-09T18:37:15.103Z,54.83
2022-12-09T18:39:42.875Z,54.83
2022-12-09T18:42:10.569Z,54.83
2022-12-09T18:44:38.158Z,54.72
2022-12-09T18:47:07.330Z,54.82
2022-12-09T18:49:36.990Z,54.78
2022-12-09T18:52:04.750Z,54.71
2022-12-09T18:54:33.392Z,54.65
2022-12-09T18:57:01.967Z,54.67
2022-12-09T18:59:30.992Z,54.86
2022-12-09T19:01:58.763Z,54.68
2022-12-09T19:04:28.536Z,54.83
2022-12-09T19:06:56.586Z,54.91
2022-12-09T19:09:24.488Z,54.75
2022-12-09T19:11:52.223Z,54.65
2022-12-09T19:14:21.443Z,54.84
2022-12-09T19:16:49.181Z,54.84
2022-12-09T19:19:17.319Z,54.87
2022-12-09T19:21:46.319Z,54.82
2022-12-09T19:24:14.257Z,54.75
2022-12-09T19:26:42.747Z,54.84
2022-12-09T19:29:10.650Z,54.75
2022-12-09T19:31:39.056Z,54.76
2022-12-09T19:34:07.483Z,54.94
2022-12-09T19:36:35.284Z,54.73
2022-12-09T19:39:04.866Z,54.79
2022-12-09T19:41:32.516Z,54.80
2022-12-09T19:44:00.457Z,54.91
2022-12-09T19:46:28.190Z,54.88
2022-12-09T19:48:55.877Z,54.75
2022-12-09T19:51:24.015Z,54.92
2022-12-09T19:53:54.060Z,54.79
2022-12-09T19:56:23.607Z,54.86
2022-12-09T19:58:51.595Z,54.76
2022-12-09T20:01:19.830Z,54.89
2022-12-09T20:03:48.893Z,54.92
2022-12-09T20:06:18.096Z,54.81
2022-12-09T20:08:45.733Z,54.93
2022-12-09T20:11:14.046Z,54.80
2022-12-09T20:13:43.178Z,54.87
2022-12-09T20:16:11.288Z,54.91
2022-12-09T20:18:39.120Z,54.80
2022-12-09T20:21:07.161Z,54.80
2022-12-09T20:23:34.981Z,54.90
2022-12-09T20:26:06.288Z,54.94
2022-12-09T20:28:33.917Z,54.84
2022-12-09T20:31:06.180Z,54.94
2022-12-09T20:33:33.897Z,54.84
2022-12-09T20:36:05.390Z,55.02
2022-12-09T20:38:34.950Z,54.86
2022-12-09T20:41:05.730Z,54.99
2022-12-09T20:43:39.205Z,54.97
2022-12-09T20:46:09.235Z,54.98
2022-12-09T20:48:37.131Z,55.03
2022-12-09T20:51:05.823Z,55.00
2022-12-09T20:53:33.449Z,54.94
2022-12-09T20:56:01.062Z,54.89
2022-12-09T20:58:28.687Z,54.85
2022-12-09T21:00:56.635Z,55.08
2022-12-09T21:03:26.530Z,55.03
2022-12-09T21:05:57.074Z,55.04
2022-12-09T21:08:29.826Z,55.06
2022-12-09T21:11:05.400Z,55.08
2022-12-09T21:13:33.153Z,54.93
2022-12-09T21:16:04.929Z,55.14
2022-12-09T21:18:34.250Z,55.10
2022-12-09T21:21:01.886Z,54.98
2022-12-09T21:23:34.096Z,55.10
2022-12-09T21:26:03.454Z,55.11
2022-12-09T21:28:31.109Z,55.13
2022-12-09T21:30:58.702Z,54.99
2022-12-09T21:33:26.262Z,55.15
2022-12-09T21:35:55.275Z,55.15
2022-12-09T21:38:22.876Z,55.13
2022-12-09T21:40:50.522Z,55.12
2022-12-09T21:43:18.127Z,55.10
2022-12-09T21:45:45.766Z,55.14
2022-12-09T21:48:13.404Z,55.16
2022-12-09T21:50:41.033Z,54.97
2022-12-09T21:53:10.169Z,55.16
2022-12-09T21:55:38.825Z,55.17
2022-12-09T21:58:06.411Z,55.08
2022-12-09T22:00:34.003Z,55.09
2022-12-09T22:03:01.668Z,55.18
2022-12-09T22:05:29.342Z,55.02
2022-12-09T22:07:57.508Z,55.20
2022-12-09T22:10:27.097Z,55.22
2022-12-09T22:12:54.969Z,55.07
2022-12-09T22:15:22.522Z,55.24
2022-12-09T22:17:50.119Z,55.22
2022-12-09T22:23:05.488Z,55.09
2022-12-09T22:25:34.434Z,55.24
2022-12-09T22:28:02.065Z,55.26
2022-12-09T22:30:29.702Z,55.25
2022-12-09T22:32:57.574Z,55.23
2022-12-09T22:35:25.429Z,55.25
2022-12-09T22:37:53.268Z,55.16
2022-12-09T22:40:20.918Z,55.09
2022-12-09T22:42:50.120Z,55.21
2022-12-09T22:45:17.703Z,55.17
2022-12-09T22:47:45.321Z,55.26
2022-12-09T23:45:50.155Z,55.02
2022-12-09T23:48:17.997Z,55.09
2022-12-09T23:50:45.695Z,55.30
2022-12-09T23:53:13.501Z,55.41
2022-12-09T23:55:42.496Z,55.47
2022-12-09T23:58:10.680Z,55.53
